createdAt,value
2022-11-29T00:01:20.691Z,14.50
2022-11-29T00:03:47.337Z,17.60
2022-11-29T00:06:16.706Z,18.33
2022-11-29T00:08:43.361Z,16.55
2022-11-29T00:11:39.187Z,15.07
2022-11-29T00:14:07.528Z,19.60
2022-11-29T00:16:34.407Z,16.98
2022-11-29T00:19:01.259Z,17.73
2022-11-29T00:21:27.798Z,18.20
2022-11-29T00:23:54.489Z,20.25
2022-11-29T00:26:20.986Z,21.58
2022-11-29T00:28:47.592Z,20.75
2022-11-29T00:31:18.188Z,20.40
2022-11-29T00:33:44.969Z,18.77
2022-11-29T00:36:12.038Z,20.40
2022-11-29T00:38:39.308Z,19.95
2022-11-29T00:41:06.716Z,21.45
2022-11-29T00:43:33.501Z,22.17
2022-11-29T00:45:59.923Z,19.73
2022-11-29T00:48:26.636Z,19.60
2022-11-29T00:50:53.403Z,21.35
2022-11-29T00:53:20.002Z,20.55
2022-11-29T00:55:50.646Z,19.63
2022-11-29T00:58:17.514Z,21.67
2022-11-29T01:00:44.377Z,19.92
2022-11-29T01:03:11.075Z,22.33
2022-11-29T01:05:37.805Z,20.77
2022-11-29T01:08:04.673Z,20.02
2022-11-29T01:10:31.077Z,20.58
2022-11-29T01:12:57.889Z,22.02
2022-11-29T01:15:24.486Z,22.38
2022-11-29T01:17:50.898Z,18.88
2022-11-29T01:20:17.534Z,20.23
2022-11-29T01:22:44.417Z,18.42
2022-11-29T01:25:12.484Z,24.25
2022-11-29T01:27:39.495Z,21.77
2022-11-29T01:30:07.627Z,22.33
2022-11-29T01:32:35.060Z,21.10
2022-11-29T01:35:01.772Z,22.40
2022-11-29T01:37:29.751Z,24.95
2022-11-29T01:39:56.340Z,24.85
2022-11-29T01:42:23.085Z,21.80
2022-11-29T01:44:49.442Z,23.60
2022-11-29T01:47:18.805Z,26.40
2022-11-29T01:49:48.701Z,24.33
2022-11-29T01:52:20.980Z,27.05
2022-11-29T01:54:50.869Z,23.25
2022-11-29T01:57:18.457Z,23.35
2022-11-29T01:59:49.553Z,27.77
2022-11-29T02:02:22.137Z,27.17
2022-11-29T02:04:49.612Z,24.05
2022-11-29T02:07:16.568Z,29.45
2022-11-29T02:09:42.997Z,26.08
2022-11-29T02:12:28.433Z,25.23
2022-11-29T02:15:18.324Z,26.92
2022-11-29T02:18:03.391Z,23.60
2022-11-29T02:21:14.835Z,27.20
2022-11-29T02:24:28.952Z,24.40
2022-11-29T02:27:11.843Z,23.60
2022-11-29T02:30:05.278Z,29.52
2022-11-29T02:33:05.795Z,29.65
2022-11-29T02:35:53.468Z,32.63
2022-11-29T02:38:43.100Z,28.55
2022-11-29T02:41:36.440Z,31.10
2022-11-29T02:44:17.846Z,33.00
2022-11-29T02:47:09.284Z,33.22
2022-11-29T02:50:00.768Z,39.75
2022-11-29T02:52:53.606Z,31.63
2022-11-29T02:55:47.470Z,34.75
2022-11-29T02:58:31.170Z,32.58
2022-11-29T03:01:25.264Z,39.28
2022-11-29T03:04:27.119Z,36.38
2022-11-29T03:07:05.874Z,34.40
2022-11-29T03:09:36.998Z,41.20
2022-11-29T03:12:40.316Z,45.35
2022-11-29T03:15:24.964Z,39.30
2022-11-29T03:18:28.362Z,37.88
2022-11-29T03:21:17.560Z,40.95
2022-11-29T03:23:53.631Z,43.55
2022-11-29T03:26:26.070Z,37.13
2022-11-29T03:29:23.515Z,40.75
2022-11-29T03:32:09.106Z,45.17
2022-11-29T03:35:03.796Z,47.42
2022-11-29T03:38:02.928Z,41.22
2022-11-29T03:40:39.156Z,43.40
2022-11-29T03:43:38.857Z,44.65
2022-11-29T03:46:12.532Z,44.75
2022-11-29T03:48:51.502Z,44.35
2022-11-29T03:51:29.225Z,38.72
2022-11-29T03:54:11.538Z,48.33
2022-11-29T03:56:40.340Z,44.03
2022-11-29T03:59:25.682Z,44.80
2022-11-29T04:02:16.320Z,49.53
2022-11-29T04:05:19.471Z,45.97
2022-11-29T04:07:55.373Z,54.33
2022-11-29T04:10:59.045Z,52.15
2022-11-29T04:13:41.478Z,54.70
2022-11-29T04:16:41.012Z,52.83
2022-11-29T04:19:46.053Z,54.60
2022-11-29T04:22:43.429Z,57.50
2022-11-29T04:25:39.735Z,63.72
2022-11-29T04:28:38.702Z,61.70
2022-11-29T04:31:21.857Z,67.90
2022-11-29T04:34:06.651Z,60.83
2022-11-29T04:36:51.107Z,64.28
2022-11-29T04:39:45.778Z,62.38
2022-11-29T04:42:18.322Z,59.45
2022-11-29T04:45:06.427Z,68.05
2022-11-29T04:47:42.922Z,65.00
2022-11-29T04:50:30.537Z,67.18
2022-11-29T04:52:59.665Z,58.90
2022-11-29T04:55:41.300Z,61.67
2022-11-29T04:58:28.402Z,66.07
2022-11-29T05:01:13.260Z,62.47
2022-11-29T05:04:02.458Z,61.00
2022-11-29T05:06:34.601Z,58.05
2022-11-29T05:09:21.099Z,58.30
2022-11-29T05:11:58.551Z,60.95
2022-11-29T05:14:58.911Z,59.85
2022-11-29T05:17:36.830Z,57.15
2022-11-29T05:20:18.964Z,58.88
2022-11-29T05:23:04.437Z,60.90
2022-11-29T05:25:55.762Z,64.03
2022-11-29T05:28:37.557Z,61.63
2022-11-29T05:31:19.068Z,51.45
2022-11-29T05:33:56.179Z,65.35
2022-11-29T05:36:55.205Z,59.47
2022-11-29T05:39:39.870Z,61.85
2022-11-29T05:42:44.060Z,62.58
2022-11-29T05:45:25.791Z,66.68
2022-11-29T05:48:09.184Z,63.67
2022-11-29T05:50:45.121Z,61.22
2022-11-29T05:53:33.320Z,54.17
2022-11-29T05:56:12.461Z,56.00
2022-11-29T05:58:58.219Z,51.35
2022-11-29T06:01:29.242Z,56.65
2022-11-29T06:04:02.070Z,60.00
2022-11-29T06:06:43.489Z,60.00
2022-11-29T06:09:24.539Z,57.45
2022-11-29T06:12:06.713Z,56.92
2022-11-29T06:15:13.584Z,51.00
2022-11-29T06:17:55.486Z,47.90
2022-11-29T06:20:40.654Z,49.83
2022-11-29T06:23:25.525Z,53.80
2022-11-29T06:26:04.120Z,53.03
2022-11-29T06:29:03.136Z,56.22
2022-11-29T06:31:34.919Z,52.80
2022-11-29T06:34:11.150Z,56.65
2022-11-29T06:36:43.528Z,55.60
2022-11-29T06:39:11.105Z,62.53
2022-11-29T06:41:37.817Z,59.15
2022-11-29T06:44:04.879Z,53.53
2022-11-29T06:46:45.909Z,57.28
2022-11-29T06:49:32.764Z,62.92
2022-11-29T06:52:27.382Z,54.00
2022-11-29T06:55:24.197Z,59.10
2022-11-29T06:58:07.083Z,59.30
2022-11-29T07:00:45.526Z,60.58
2022-11-29T07:04:03.618Z,61.70
2022-11-29T07:06:31.858Z,61.67
2022-11-29T07:09:10.399Z,66.63
2022-11-29T07:11:37.548Z,61.42
2022-11-29T07:14:04.265Z,64.28
2022-11-29T07:16:36.603Z,65.45
2022-11-29T07:19:29.165Z,63.63
2022-11-29T07:22:24.900Z,63.45
2022-11-29T07:25:19.280Z,10.45
2022-11-29T07:30:28.539Z,81.18
2022-11-29T07:33:32.560Z,81.15
2022-11-29T07:36:09.979Z,83.13
2022-11-29T07:38:57.638Z,83.35
2022-11-29T07:41:44.367Z,74.97
2022-11-29T07:44:34.963Z,83.00
2022-11-29T07:47:02.246Z,93.57
2022-11-29T07:49:28.803Z,82.70
2022-11-29T07:51:56.218Z,81.03
2022-11-29T07:54:23.324Z,81.18
2022-11-29T07:56:49.990Z,82.97
2022-11-29T07:59:16.652Z,83.68
2022-11-29T08:01:43.296Z,89.35
2022-11-29T08:04:09.845Z,84.38
2022-11-29T08:06:37.129Z,91.35
2022-11-29T08:09:04.521Z,83.85
2022-11-29T08:11:31.130Z,81.90
2022-11-29T08:14:02.438Z,83.90
2022-11-29T08:16:29.063Z,82.80
2022-11-29T08:18:55.536Z,85.30
2022-11-29T08:21:22.358Z,86.88
2022-11-29T08:23:49.923Z,83.57
2022-11-29T08:26:18.256Z,77.38
2022-11-29T08:28:44.953Z,77.47
2022-11-29T08:31:13.701Z,84.75
2022-11-29T08:33:43.078Z,79.95
2022-11-29T08:36:13.106Z,73.85
2022-11-29T08:38:39.947Z,76.18
2022-11-29T08:41:10.784Z,75.05
2022-11-29T08:43:37.538Z,75.07
2022-11-29T08:46:04.410Z,74.65
2022-11-29T08:48:31.094Z,85.43
2022-11-29T08:50:57.997Z,86.60
2022-11-29T08:53:43.300Z,82.40
2022-11-29T08:56:53.530Z,69.35
2022-11-29T08:58:59.159Z,80.47
2022-11-29T09:01:26.011Z,83.82
2022-11-29T09:04:05.104Z,84.90
2022-11-29T09:06:39.076Z,73.75
2022-11-29T09:09:06.403Z,81.72
2022-11-29T09:11:34.698Z,79.50
2022-11-29T09:14:05.170Z,83.10
2022-11-29T09:16:35.069Z,85.28
2022-11-29T09:19:02.804Z,88.70
2022-11-29T09:21:31.490Z,80.65
2022-11-29T09:26:30.651Z,75.00
2022-11-29T09:29:01.382Z,75.65
2022-11-29T09:31:29.798Z,86.15
2022-11-29T09:33:56.673Z,83.93
2022-11-29T09:36:28.534Z,85.75
2022-11-29T09:38:57.018Z,83.85
2022-11-29T09:41:53.901Z,90.85
2022-11-29T09:44:39.357Z,89.25
2022-11-29T09:47:26.829Z,87.18
2022-11-29T09:49:56.280Z,91.70
2022-11-29T09:52:28.797Z,97.22
2022-11-29T09:55:27.563Z,94.95
2022-11-29T09:57:56.836Z,92.78
2022-11-29T10:00:23.374Z,96.80
2022-11-29T10:03:03.048Z,92.32
2022-11-29T10:05:53.367Z,82.75
2022-11-29T10:08:27.247Z,83.88
2022-11-29T10:11:01.529Z,91.32
2022-11-29T10:13:34.049Z,86.50
2022-11-29T10:16:13.086Z,93.75
2022-11-29T10:19:15.459Z,95.85
2022-11-29T10:21:48.784Z,86.97
2022-11-29T10:24:20.481Z,78.32
2022-11-29T10:26:46.919Z,78.32
2022-11-29T10:29:15.500Z,72.45
2022-11-29T10:31:47.025Z,70.90
2022-11-29T10:34:23.130Z,79.22
2022-11-29T10:37:01.541Z,75.38
2022-11-29T10:39:39.673Z,76.20
2022-11-29T10:42:35.046Z,78.32
2022-11-29T10:45:02.560Z,73.40
2022-11-29T10:47:29.343Z,74.53
2022-11-29T10:49:56.876Z,78.63
2022-11-29T10:52:24.013Z,71.68
2022-11-29T10:54:56.927Z,66.40
2022-11-29T10:57:24.187Z,70.97
2022-11-29T11:00:11.521Z,72.00
2022-11-29T11:02:38.351Z,72.13
2022-11-29T11:05:18.566Z,70.18
2022-11-29T11:07:47.318Z,72.05
2022-11-29T11:10:29.459Z,65.30
2022-11-29T11:13:06.889Z,69.13
2022-11-29T11:15:33.940Z,69.95
2022-11-29T11:18:06.269Z,68.20
2022-11-29T11:20:36.244Z,58.95
2022-11-29T11:23:20.041Z,63.90
2022-11-29T11:25:50.106Z,68.72
2022-11-29T11:28:21.190Z,67.28
2022-11-29T11:31:08.166Z,64.45
2022-11-29T11:33:39.523Z,66.05
2022-11-29T11:36:09.460Z,59.50
2022-11-29T11:38:40.369Z,66.30
2022-11-29T11:41:45.688Z,64.70
2022-11-29T11:44:58.615Z,60.88
2022-11-29T11:47:31.965Z,65.20
2022-11-29T11:50:04.470Z,63.80
2022-11-29T11:52:41.176Z,62.00
2022-11-29T11:55:26.403Z,64.93
2022-11-29T11:58:10.291Z,58.15
2022-11-29T12:01:02.993Z,62.83
2022-11-29T12:03:51.391Z,59.95
2022-11-29T12:06:43.921Z,64.32
2022-11-29T12:09:25.256Z,65.07
2022-11-29T12:12:29.367Z,58.90
2022-11-29T12:15:01.378Z,62.30
2022-11-29T12:17:49.156Z,59.88
2022-11-29T12:20:39.721Z,52.55
2022-11-29T12:23:28.383Z,55.08
2022-11-29T12:26:00.757Z,54.53
2022-11-29T12:28:30.439Z,51.70
2022-11-29T12:31:15.746Z,53.67
2022-11-29T12:34:04.226Z,58.13
2022-11-29T12:36:52.644Z,50.03
2022-11-29T12:39:42.854Z,63.10
2022-11-29T12:42:26.438Z,55.08
2022-11-29T12:45:23.286Z,48.78
2022-11-29T12:48:22.063Z,56.78
2022-11-29T12:51:14.848Z,61.60
2022-11-29T12:53:55.669Z,49.55
2022-11-29T12:56:32.262Z,65.30
2022-11-29T12:59:12.622Z,62.25
2022-11-29T13:01:58.138Z,69.35
2022-11-29T13:04:55.023Z,65.20
2022-11-29T13:07:51.193Z,70.60
2022-11-29T13:10:42.418Z,64.45
2022-11-29T13:13:29.115Z,70.05
2022-11-29T13:16:04.762Z,66.82
2022-11-29T13:18:56.270Z,57.10
2022-11-29T13:21:31.881Z,56.72
2022-11-29T13:24:10.445Z,58.42
2022-11-29T13:26:39.979Z,56.08
2022-11-29T13:29:12.404Z,51.13
2022-11-29T13:31:39.743Z,54.53
2022-11-29T13:34:21.178Z,55.55
2022-11-29T13:36:59.606Z,58.75
2022-11-29T13:39:36.214Z,56.60
2022-11-29T13:42:34.210Z,54.58
2022-11-29T13:45:09.675Z,57.90
2022-11-29T13:47:56.377Z,58.78
2022-11-29T13:50:39.304Z,52.22
2022-11-29T13:53:20.288Z,55.60
2022-11-29T13:55:50.405Z,59.55
2022-11-29T13:58:33.506Z,57.70
2022-11-29T14:01:09.565Z,51.83
2022-11-29T14:03:59.652Z,54.03
2022-11-29T14:06:46.939Z,51.92
2022-11-29T14:09:33.878Z,58.88
2022-11-29T14:12:16.524Z,57.70
2022-11-29T14:14:54.553Z,62.13
2022-11-29T14:17:56.881Z,52.13
2022-11-29T14:20:23.342Z,54.53
2022-11-29T14:23:06.731Z,55.50
2022-11-29T14:25:53.686Z,52.00
2022-11-29T14:28:23.210Z,52.42
2022-11-29T14:30:57.320Z,57.50
2022-11-29T14:33:39.039Z,49.80
2022-11-29T14:36:14.926Z,49.38
2022-11-29T14:38:44.464Z,53.20
2022-11-29T14:41:47.671Z,50.70
2022-11-29T14:44:28.126Z,58.72
2022-11-29T14:47:32.847Z,51.95
2022-11-29T14:50:01.523Z,46.10
2022-11-29T14:55:14.722Z,43.65
2022-11-29T14:57:47.220Z,39.20
2022-11-29T15:00:19.265Z,41.42
2022-11-29T15:02:55.497Z,40.28
2022-11-29T15:05:33.514Z,47.88
2022-11-29T15:08:18.851Z,39.95
2022-11-29T15:10:54.070Z,47.03
2022-11-29T15:13:28.270Z,38.47
2022-11-29T15:16:12.993Z,39.42
2022-11-29T15:19:07.831Z,41.78
2022-11-29T15:21:56.077Z,40.92
2022-11-29T15:24:28.128Z,42.38
2022-11-29T15:27:00.565Z,44.47
2022-11-29T15:29:29.416Z,37.75
2022-11-29T15:31:59.113Z,41.13
2022-11-29T15:34:43.229Z,39.38
2022-11-29T15:37:22.395Z,35.22
2022-11-29T15:40:02.441Z,42.08
2022-11-29T15:42:42.468Z,39.88
2022-11-29T15:45:34.916Z,39.60
2022-11-29T15:48:23.131Z,42.45
2022-11-29T15:50:56.136Z,38.13
2022-11-29T15:54:13.794Z,38.28
2022-11-29T15:57:03.458Z,38.33
2022-11-29T15:59:51.244Z,37.17
2022-11-29T16:02:26.078Z,40.17
2022-11-29T16:04:56.680Z,34.08
2022-11-29T16:07:25.774Z,39.30
2022-11-29T16:09:57.935Z,36.35
2022-11-29T16:12:24.532Z,40.35
2022-11-29T16:14:58.406Z,33.95
2022-11-29T16:17:29.213Z,32.95
2022-11-29T16:20:25.990Z,38.72
2022-11-29T16:23:07.949Z,37.75
2022-11-29T16:25:48.070Z,35.97
2022-11-29T16:28:14.909Z,32.95
2022-11-29T16:30:42.523Z,35.15
2022-11-29T16:33:19.040Z,36.45
2022-11-29T16:35:45.753Z,33.85
2022-11-29T16:38:23.021Z,33.08
2022-11-29T16:41:01.901Z,33.47
2022-11-29T16:43:43.774Z,34.30
2022-11-29T16:46:27.166Z,36.58
2022-11-29T16:48:55.669Z,34.95
2022-11-29T16:51:23.984Z,33.05
2022-11-29T16:53:52.151Z,30.17
2022-11-29T16:56:22.207Z,31.80
2022-11-29T16:59:20.956Z,32.10
2022-11-29T17:01:48.045Z,36.92
2022-11-29T17:04:23.988Z,36.67
2022-11-29T17:06:54.135Z,38.05
2022-11-29T17:09:28.401Z,37.40
2022-11-29T17:11:55.961Z,32.83
2022-11-29T17:14:23.208Z,38.13
2022-11-29T17:16:50.363Z,38.50
2022-11-29T17:19:22.865Z,36.05
2022-11-29T17:21:52.314Z,37.67
2022-11-29T17:24:20.624Z,41.38
2022-11-29T17:26:47.237Z,26.75
2022-11-29T17:29:15.152Z,31.05
2022-11-29T17:31:43.898Z,30.17
2022-11-29T17:34:10.956Z,33.70
2022-11-29T17:36:38.106Z,38.90
2022-11-29T17:39:05.601Z,37.20
2022-11-29T17:41:33.000Z,34.42
2022-11-29T17:44:00.319Z,35.95
2022-11-29T17:46:30.922Z,31.05
2022-11-29T17:49:02.699Z,26.75
2022-11-29T17:51:51.210Z,33.38
2022-11-29T17:54:16.467Z,32.97
2022-11-29T17:56:43.068Z,32.83
2022-11-29T17:59:09.447Z,30.92
2022-11-29T18:01:36.139Z,31.20
2022-11-29T18:04:05.601Z,33.13
2022-11-29T18:06:38.840Z,33.45
2022-11-29T18:09:08.054Z,32.95
2022-11-29T18:11:46.348Z,37.22
2022-11-29T18:14:17.537Z,32.00
2022-11-29T18:16:45.761Z,33.90
2022-11-29T18:19:14.996Z,38.58
2022-11-29T18:21:41.763Z,34.70
2022-11-29T18:24:09.099Z,36.67
2022-11-29T18:26:36.893Z,38.72
2022-11-29T18:29:05.226Z,37.13
2022-11-29T18:31:34.796Z,36.45
2022-11-29T18:34:03.476Z,34.97
2022-11-29T18:36:33.027Z,33.33
2022-11-29T18:39:06.340Z,37.30
2022-11-29T18:41:32.846Z,32.83
2022-11-29T18:44:02.177Z,36.55
2022-11-29T18:46:32.373Z,35.17
2022-11-29T18:49:02.937Z,34.55
2022-11-29T18:51:30.949Z,35.03
2022-11-29T18:53:58.487Z,41.95
2022-11-29T18:56:28.509Z,33.47
2022-11-29T18:59:00.494Z,36.63
2022-11-29T19:01:28.991Z,31.55
2022-11-29T19:03:57.946Z,32.92
2022-11-29T19:06:39.401Z,29.65
2022-11-29T19:09:11.501Z,36.58
2022-11-29T19:11:38.895Z,45.67
2022-11-29T19:14:11.685Z,41.55
2022-11-29T19:16:40.989Z,43.67
2022-11-29T19:19:07.576Z,39.58
2022-11-29T19:21:34.497Z,36.65
2022-11-29T19:24:03.477Z,36.38
2022-11-29T19:26:31.737Z,36.17
2022-11-29T19:29:00.231Z,35.05
2022-11-29T19:31:27.770Z,33.65
2022-11-29T19:33:55.556Z,30.90
2022-11-29T19:36:27.809Z,27.58
2022-11-29T19:38:55.148Z,26.27
2022-11-29T19:41:32.731Z,28.60
2022-11-29T19:44:07.709Z,25.38
2022-11-29T19:46:36.910Z,24.77
2022-11-29T19:49:05.800Z,22.98
2022-11-29T19:51:33.304Z,29.65
2022-11-29T19:54:02.871Z,29.33
2022-11-29T19:56:30.759Z,31.95
2022-11-29T19:58:59.540Z,31.67
2022-11-29T20:01:35.955Z,31.33
2022-11-29T20:04:06.280Z,29.83
2022-11-29T20:06:32.874Z,27.95
2022-11-29T20:08:59.401Z,30.13
2022-11-29T20:11:26.531Z,32.60
2022-11-29T20:13:56.550Z,35.53
2022-11-29T20:16:23.571Z,31.10
2022-11-29T20:18:51.670Z,37.08
2022-11-29T20:21:21.761Z,32.72
2022-11-29T20:23:48.506Z,31.25
2022-11-29T20:26:18.114Z,41.72
2022-11-29T20:28:46.275Z,31.90
2022-11-29T20:31:16.975Z,36.05
2022-11-29T20:33:45.734Z,31.88
2022-11-29T20:36:47.876Z,33.35
2022-11-29T20:39:29.255Z,36.78
2022-11-29T20:42:22.612Z,37.20
2022-11-29T20:44:54.224Z,33.70
2022-11-29T20:47:23.749Z,30.30
2022-11-29T20:49:51.418Z,29.10
2022-11-29T20:52:57.388Z,31.40
2022-11-29T20:55:24.000Z,28.40
2022-11-29T20:57:50.622Z,28.30
2022-11-29T21:00:18.086Z,28.50
2022-11-29T21:02:44.767Z,29.95
2022-11-29T21:05:11.418Z,29.52
2022-11-29T21:07:37.943Z,29.70
2022-11-29T21:10:05.201Z,29.15
2022-11-29T21:12:32.041Z,35.67
2022-11-29T21:14:58.806Z,31.70
2022-11-29T21:17:31.731Z,32.65
2022-11-29T21:20:00.096Z,35.67
2022-11-29T21:22:30.473Z,33.40
2022-11-29T21:25:12.155Z,29.95
2022-11-29T21:27:38.892Z,33.38
2022-11-29T21:30:06.533Z,34.05
2022-11-29T21:32:33.774Z,33.00
2022-11-29T21:35:00.176Z,33.05
2022-11-29T21:37:29.744Z,31.42
2022-11-29T21:39:57.504Z,30.58
2022-11-29T21:42:24.139Z,34.33
2022-11-29T21:44:50.888Z,34.53
2022-11-29T21:47:17.535Z,34.72
2022-11-29T21:49:43.951Z,36.88
2022-11-29T21:52:10.653Z,36.58
2022-11-29T21:54:37.187Z,35.63
2022-11-29T21:57:04.297Z,35.53
2022-11-29T21:59:30.800Z,35.05
2022-11-29T22:01:57.451Z,36.75
2022-11-29T22:04:24.998Z,38.78
2022-11-29T22:06:51.372Z,40.80
2022-11-29T22:09:17.781Z,36.45
2022-11-29T22:11:44.553Z,35.45
2022-11-29T22:14:14.164Z,37.53
2022-11-29T22:16:42.253Z,37.45
2022-11-29T22:19:12.312Z,36.63
2022-11-29T22:21:40.286Z,35.60
2022-11-29T22:24:08.644Z,41.53
2022-11-29T22:26:35.175Z,41.08
2022-11-29T22:29:01.798Z,39.03
2022-11-29T22:31:28.580Z,37.30
2022-11-29T22:33:55.683Z,39.30
2022-11-29T22:36:22.957Z,37.45
2022-11-29T22:38:49.401Z,39.25
2022-11-29T22:41:16.436Z,40.15
2022-11-29T22:43:43.169Z,40.83
2022-11-29T22:46:18.990Z,40.17
2022-11-29T22:48:48.847Z,39.83
2022-11-29T22:51:18.105Z,43.38
2022-11-29T22:54:11.895Z,44.00
2022-11-29T22:56:40.310Z,42.13
2022-11-29T22:59:07.282Z,44.08
2022-11-29T23:01:36.850Z,40.60
2022-11-29T23:04:07.105Z,41.10
2022-11-29T23:06:42.126Z,42.90
2022-11-29T23:09:19.655Z,47.17
2022-11-29T23:11:50.747Z,47.10
2022-11-29T23:14:17.936Z,43.47
2022-11-29T23:16:44.662Z,40.67
2022-11-29T23:19:11.550Z,39.85
2022-11-29T23:21:41.016Z,46.53
2022-11-29T23:24:07.779Z,42.70
2022-11-29T23:26:40.066Z,44.38
2022-11-29T23:29:08.946Z,44.72
2022-11-29T23:31:35.488Z,50.80
2022-11-29T23:34:02.998Z,43.72
2022-11-29T23:36:29.464Z,46.80
2022-11-29T23:38:56.000Z,41.95
2022-11-29T23:41:22.820Z,37.88
2022-11-29T23:43:49.334Z,39.03
2022-11-29T23:46:21.709Z,41.33
2022-11-29T23:48:48.675Z,36.05
2022-11-29T23:51:15.657Z,40.95
2022-11-29T23:53:43.880Z,39.10
2022-11-29T23:56:14.413Z,37.35
2022-11-29T23:58:41.656Z,42.45
